Time;durP1;ratioP1;P1;durP2;ratioP2;P2;SDS_P1;SDS_P2;PMS_P1;PMS_P2;Temp;Humidity;BMP_temperature;BMP_pressure;BME280_temperature;BME280_humidity;BME280_pressure;Samples;Min_cycle;Max_cycle;Signal;HPM_P1;HPM_P2
2022/09/29 00:01:40;;;;;;;;;;;17.90;89.50;;;;;;5072888;28;20240;-62
2022/09/29 00:04:05;;;;;;;;;;;18.00;89.60;;;;;;5060474;28;20021;-63
2022/09/29 00:06:31;;;;;;;;;;;18.10;89.60;;;;;;5073984;28;19924;-62
2022/09/29 00:08:57;;;;;;;;;;;17.80;89.50;;;;;;5062541;28;19935;-62
2022/09/29 00:11:22;;;;;;;;;;;17.80;89.40;;;;;;5070795;28;20344;-62
2022/09/29 00:13:48;;;;;;;;;;;17.90;89.50;;;;;;5061764;28;20370;-63
2022/09/29 00:16:14;;;;;;;;;;;17.90;89.40;;;;;;5068480;28;19925;-63
2022/09/29 00:18:39;;;;;;;;;;;17.90;89.40;;;;;;5052985;28;20030;-62
2022/09/29 00:21:06;;;;;;;;;;;17.90;89.40;;;;;;5071165;28;19978;-62
2022/09/29 00:23:32;;;;;;;;;;;17.80;89.40;;;;;;5061743;28;20385;-62
2022/09/29 00:26:07;;;;;;;;;;;18.10;89.50;;;;;;5074482;28;19935;-62
2022/09/29 00:28:33;;;;;;;;;;;17.90;89.40;;;;;;5064031;28;19951;-62
2022/09/29 00:30:59;;;;;;;;;;;17.90;89.40;;;;;;5072634;28;19925;-62
2022/09/29 00:33:25;;;;;;;;;;;18.00;89.40;;;;;;5072639;28;19928;-61
2022/09/29 00:35:57;;;;;;;;;;;18.10;89.50;;;;;;5074164;28;19930;-62
2022/09/29 00:38:24;;;;;;;;;;;17.80;89.40;;;;;;5073297;28;20293;-62
2022/09/29 00:40:49;;;;;;;;;;;17.80;89.40;;;;;;5072593;28;19924;-62
2022/09/29 00:43:18;;;;;;;;;;;18.00;89.50;;;;;;5073487;28;19931;-63
2022/09/29 00:45:44;;;;;;;;;;;18.20;89.60;;;;;;5070833;28;20378;-62
2022/09/29 00:48:12;;;;;;;;;;;17.80;89.50;;;;;;5075582;28;19976;-62
2022/09/29 00:50:40;;;;;;;;;;;17.80;89.40;;;;;;5054301;28;19925;-63
2022/09/29 00:53:10;;;;;;;;;;;17.80;89.40;;;;;;5072533;28;19925;-62
2022/09/29 00:55:47;;;;;;;;;;;18.00;89.50;;;;;;5071878;28;19925;-62
2022/09/29 00:58:28;;;;;;;;;;;17.90;89.60;;;;;;5074809;28;20409;-62
2022/09/29 01:00:54;;;;;;;;;;;18.00;89.60;;;;;;5072208;28;20398;-67
2022/09/29 01:03:21;;;;;;;;;;;17.80;89.40;;;;;;5072357;28;20066;-61
2022/09/29 01:05:57;;;;;;;;;;;17.80;89.20;;;;;;5070562;28;20321;-63
2022/09/29 01:08:24;;;;;;;;;;;17.80;89.20;;;;;;5071220;28;19931;-62
2022/09/29 01:10:49;;;;;;;;;;;17.70;89.20;;;;;;5053915;28;20404;-62
2022/09/29 01:13:15;;;;;;;;;;;17.70;89.30;;;;;;5071538;28;19932;-62
2022/09/29 01:15:41;;;;;;;;;;;17.70;88.80;;;;;;5070275;28;20425;-62
2022/09/29 01:18:07;;;;;;;;;;;17.80;89.40;;;;;;5065785;28;19929;-62
2022/09/29 01:20:33;;;;;;;;;;;17.80;89.30;;;;;;5073655;28;19968;-62
2022/09/29 01:23:14;;;;;;;;;;;18.00;89.40;;;;;;5047418;28;19925;-62
2022/09/29 01:25:40;;;;;;;;;;;17.80;89.30;;;;;;5058014;28;20381;-62
2022/09/29 01:28:15;;;;;;;;;;;17.80;89.30;;;;;;5059138;28;20021;-62
2022/09/29 01:30:49;;;;;;;;;;;17.70;89.20;;;;;;5072729;28;19924;-62
2022/09/29 01:33:15;;;;;;;;;;;17.90;89.40;;;;;;5072221;28;19924;-62
2022/09/29 01:35:48;;;;;;;;;;;17.70;89.30;;;;;;5073066;28;19947;-62
2022/09/29 01:38:14;;;;;;;;;;;17.80;89.30;;;;;;5063651;28;19928;-62
2022/09/29 01:40:58;;;;;;;;;;;17.80;89.30;;;;;;5072381;28;20417;-62
2022/09/29 01:43:31;;;;;;;;;;;17.90;89.40;;;;;;5072772;28;20022;-61
2022/09/29 01:46:08;;;;;;;;;;;17.90;89.40;;;;;;5072823;28;19936;-62
2022/09/29 01:48:36;;;;;;;;;;;17.80;89.30;;;;;;5064450;28;20271;-62
2022/09/29 01:51:04;;;;;;;;;;;17.80;89.30;;;;;;5069992;28;20394;-62
2022/09/29 01:53:32;;;;;;;;;;;17.50;89.20;;;;;;5072035;28;19925;-62
2022/09/29 01:56:01;;;;;;;;;;;17.80;89.30;;;;;;5070812;28;19928;-62
2022/09/29 01:58:28;;;;;;;;;;;17.90;89.40;;;;;;5070664;28;19931;-62
2022/09/29 02:00:55;;;;;;;;;;;17.80;89.30;;;;;;5065216;28;19924;-62
2022/09/29 02:03:23;;;;;;;;;;;17.90;89.30;;;;;;5070885;28;19924;-62
2022/09/29 02:05:59;;;;;;;;;;;17.90;89.20;;;;;;5070658;28;19998;-63
2022/09/29 02:08:26;;;;;;;;;;;17.70;89.10;;;;;;5070091;28;20310;-65
2022/09/29 02:10:53;;;;;;;;;;;17.60;89.00;;;;;;5051298;28;19989;-65
2022/09/29 02:13:19;;;;;;;;;;;17.80;89.20;;;;;;5071453;28;19978;-61
2022/09/29 02:15:45;;;;;;;;;;;17.80;89.10;;;;;;5070213;28;19924;-61
2022/09/29 02:18:20;;;;;;;;;;;17.50;88.40;;;;;;5070234;28;19933;-62
2022/09/29 02:20:46;;;;;;;;;;;17.80;89.10;;;;;;5062976;28;20397;-62
2022/09/29 02:23:12;;;;;;;;;;;17.60;89.00;;;;;;5073543;28;19932;-63
2022/09/29 02:25:37;;;;;;;;;;;17.60;88.90;;;;;;5071623;28;19924;-62
2022/09/29 02:28:03;;;;;;;;;;;17.60;88.90;;;;;;5072952;28;20441;-63
2022/09/29 02:30:29;;;;;;;;;;;18.00;89.10;;;;;;5062080;28;19925;-62
2022/09/29 02:32:54;;;;;;;;;;;17.50;88.90;;;;;;5072554;28;19948;-62
2022/09/29 02:35:20;;;;;;;;;;;17.80;89.00;;;;;;5070490;28;20015;-62
2022/09/29 02:37:56;;;;;;;;;;;17.80;88.90;;;;;;5070438;28;19962;-62
2022/09/29 02:40:43;;;;;;;;;;;17.60;88.90;;;;;;5054059;28;19924;-63
2022/09/29 02:43:14;;;;;;;;;;;17.80;89.10;;;;;;5049912;28;19932;-62
2022/09/29 02:45:59;;;;;;;;;;;17.60;89.00;;;;;;5069901;28;19924;-64
2022/09/29 02:48:43;;;;;;;;;;;17.80;89.20;;;;;;5071240;28;19925;-62
2022/09/29 02:51:09;;;;;;;;;;;;;;;;;;5072008;28;19925;-62
2022/09/29 02:53:53;;;;;;;;;;;17.60;88.90;;;;;;5071788;28;20302;-62
2022/09/29 02:56:24;;;;;;;;;;;17.60;88.80;;;;;;5072273;28;19932;-62
2022/09/29 02:58:50;;;;;;;;;;;17.60;88.80;;;;;;5072080;28;20408;-62
2022/09/29 03:01:15;;;;;;;;;;;17.70;88.90;;;;;;5071257;28;19924;-62
2022/09/29 03:03:41;;;;;;;;;;;17.40;88.70;;;;;;5072047;28;20306;-62
2022/09/29 03:06:07;;;;;;;;;;;17.60;88.70;;;;;;5074350;28;19975;-62
2022/09/29 03:08:33;;;;;;;;;;;17.50;88.70;;;;;;5077196;28;19932;-62
2022/09/29 03:10:59;;;;;;;;;;;17.50;88.60;;;;;;5075629;28;19925;-62
2022/09/29 03:13:25;;;;;;;;;;;17.80;88.80;;;;;;5073008;28;19924;-62
2022/09/29 03:15:50;;;;;;;;;;;17.50;88.60;;;;;;5073610;28;20054;-62
2022/09/29 03:18:16;;;;;;;;;;;17.40;88.50;;;;;;5069180;28;20414;-62
2022/09/29 03:20:41;;;;;;;;;;;17.60;88.60;;;;;;5072548;28;19925;-62
2022/09/29 03:23:07;;;;;;;;;;;17.70;88.60;;;;;;5072488;28;19930;-62
2022/09/29 03:25:33;;;;;;;;;;;17.80;88.70;;;;;;5074792;28;19971;-62
2022/09/29 03:27:58;;;;;;;;;;;17.90;88.80;;;;;;5071619;28;19924;-62
2022/09/29 03:30:24;;;;;;;;;;;17.50;88.60;;;;;;5062626;28;19972;-62
2022/09/29 03:32:50;;;;;;;;;;;17.60;88.70;;;;;;5075892;28;20434;-62
2022/09/29 03:35:15;;;;;;;;;;;17.70;88.70;;;;;;5074003;28;20424;-62
2022/09/29 03:37:41;;;;;;;;;;;17.60;88.60;;;;;;5062411;28;19971;-65
2022/09/29 03:40:07;;;;;;;;;;;17.50;88.60;;;;;;5068257;28;19929;-62
2022/09/29 03:42:32;;;;;;;;;;;17.30;88.00;;;;;;5074042;28;20362;-62
2022/09/29 03:44:58;;;;;;;;;;;17.60;88.70;;;;;;5072887;28;19932;-62
2022/09/29 03:47:24;;;;;;;;;;;17.60;88.70;;;;;;5073487;28;19947;-62
2022/09/29 03:49:49;;;;;;;;;;;17.70;88.60;;;;;;5073792;28;19925;-62
2022/09/29 03:52:15;;;;;;;;;;;17.40;88.50;;;;;;5070549;28;20286;-62
2022/09/29 03:54:41;;;;;;;;;;;17.50;88.60;;;;;;5068849;28;19924;-62
2022/09/29 03:57:07;;;;;;;;;;;17.50;88.60;;;;;;5074888;28;19929;-61
2022/09/29 03:59:33;;;;;;;;;;;;;;;;;;5074818;28;20009;-63
2022/09/29 04:01:58;;;;;;;;;;;17.40;88.60;;;;;;5074529;28;20392;-62
2022/09/29 04:04:24;;;;;;;;;;;;;;;;;;5074713;28;19924;-62
2022/09/29 04:06:50;;;;;;;;;;;17.80;88.90;;;;;;5073662;28;19978;-63
2022/09/29 04:09:18;;;;;;;;;;;17.70;88.60;;;;;;5071660;28;20232;-62
2022/09/29 04:11:43;;;;;;;;;;;17.50;88.50;;;;;;5071558;28;19925;-66
2022/09/29 04:14:09;;;;;;;;;;;17.50;88.50;;;;;;5071889;28;20002;-65
2022/09/29 04:16:34;;;;;;;;;;;17.60;88.50;;;;;;5072000;28;20002;-66
2022/09/29 04:19:00;;;;;;;;;;;17.50;88.50;;;;;;5073477;28;19925;-65
2022/09/29 04:21:26;;;;;;;;;;;17.40;88.40;;;;;;5072282;28;19924;-65
2022/09/29 04:23:51;;;;;;;;;;;17.60;88.50;;;;;;5063304;28;19931;-62
2022/09/29 04:26:19;;;;;;;;;;;17.40;88.50;;;;;;5070259;28;19925;-62
2022/09/29 04:28:45;;;;;;;;;;;17.60;88.50;;;;;;5072528;28;19983;-62
2022/09/29 04:31:10;;;;;;;;;;;17.50;87.60;;;;;;5070943;28;19925;-63
2022/09/29 04:33:38;;;;;;;;;;;;;;;;;;5074391;28;20032;-63
2022/09/29 04:36:04;;;;;;;;;;;17.60;88.60;;;;;;5073477;28;19997;-62
2022/09/29 04:38:30;;;;;;;;;;;17.40;88.50;;;;;;5073075;28;20428;-62
2022/09/29 04:40:55;;;;;;;;;;;17.30;88.40;;;;;;5072128;28;19971;-62
2022/09/29 04:43:21;;;;;;;;;;;17.60;88.50;;;;;;5073684;28;19976;-62
2022/09/29 04:45:47;;;;;;;;;;;17.40;88.40;;;;;;5074397;28;19928;-62
2022/09/29 04:48:12;;;;;;;;;;;17.30;88.30;;;;;;5073294;28;19932;-62
2022/09/29 04:50:38;;;;;;;;;;;17.30;88.20;;;;;;5060653;28;19924;-62
2022/09/29 04:53:04;;;;;;;;;;;17.20;88.30;;;;;;5055235;28;20062;-62
2022/09/29 04:55:29;;;;;;;;;;;17.20;88.20;;;;;;5066113;28;19986;-62
2022/09/29 04:57:55;;;;;;;;;;;17.00;88.00;;;;;;5074295;28;20424;-62
2022/09/29 05:00:21;;;;;;;;;;;;;;;;;;5045837;28;20393;-62
2022/09/29 05:02:46;;;;;;;;;;;17.40;88.20;;;;;;5071685;28;19936;-62
2022/09/29 05:05:13;;;;;;;;;;;17.50;88.20;;;;;;5072449;28;20282;-62
2022/09/29 05:07:40;;;;;;;;;;;17.50;88.20;;;;;;5074927;28;20340;-62
2022/09/29 05:10:07;;;;;;;;;;;17.50;88.10;;;;;;5069991;28;19948;-62
2022/09/29 05:12:33;;;;;;;;;;;17.20;88.00;;;;;;5073441;28;20416;-62
2022/09/29 05:14:59;;;;;;;;;;;17.20;88.00;;;;;;5071777;28;19925;-62
2022/09/29 05:17:24;;;;;;;;;;;17.30;88.00;;;;;;5073785;28;19932;-62
2022/09/29 05:19:50;;;;;;;;;;;;;;;;;;5072058;28;19921;-62
2022/09/29 05:22:23;;;;;;;;;;;17.10;87.80;;;;;;5061289;28;19925;-62
2022/09/29 05:24:49;;;;;;;;;;;17.60;88.10;;;;;;5073042;28;20007;-61
2022/09/29 05:27:15;;;;;;;;;;;17.30;88.00;;;;;;5069401;28;19948;-65
2022/09/29 05:29:41;;;;;;;;;;;;;;;;;;5070576;28;19925;-64
2022/09/29 05:32:07;;;;;;;;;;;17.40;88.00;;;;;;5072030;28;19936;-66
2022/09/29 05:34:32;;;;;;;;;;;17.40;88.00;;;;;;5073383;28;20366;-66
2022/09/29 05:36:58;;;;;;;;;;;17.50;88.00;;;;;;5071278;28;19920;-62
2022/09/29 05:39:24;;;;;;;;;;;17.30;87.90;;;;;;5072513;28;19929;-62
2022/09/29 05:41:49;;;;;;;;;;;17.10;87.80;;;;;;5069836;28;19932;-61
2022/09/29 05:44:15;;;;;;;;;;;17.50;88.00;;;;;;5063805;28;19971;-62
2022/09/29 05:46:41;;;;;;;;;;;17.40;87.90;;;;;;5065418;28;19974;-62
2022/09/29 05:49:06;;;;;;;;;;;17.70;88.10;;;;;;5074059;28;19991;-62
2022/09/29 05:51:32;;;;;;;;;;;17.40;87.80;;;;;;5068617;28;19994;-62
2022/09/29 05:53:59;;;;;;;;;;;17.50;87.90;;;;;;5055293;28;20337;-62
2022/09/29 05:56:25;;;;;;;;;;;;;;;;;;5072825;28;19931;-64
2022/09/29 05:58:51;;;;;;;;;;;17.40;87.80;;;;;;5073154;28;20290;-62
2022/09/29 06:01:18;;;;;;;;;;;17.30;87.70;;;;;;5071791;28;19928;-62
2022/09/29 06:03:43;;;;;;;;;;;17.30;87.70;;;;;;5069834;28;19924;-62
2022/09/29 06:06:10;;;;;;;;;;;17.50;87.80;;;;;;5070228;28;19925;-62
2022/09/29 06:08:36;;;;;;;;;;;17.30;87.60;;;;;;5073885;28;19948;-63
2022/09/29 06:11:11;;;;;;;;;;;17.30;87.60;;;;;;5071721;28;19925;-62
2022/09/29 06:13:37;;;;;;;;;;;;;;;;;;5068879;28;19928;-62
2022/09/29 06:16:03;;;;;;;;;;;;;;;;;;5056656;28;19931;-64
2022/09/29 06:18:29;;;;;;;;;;;17.50;87.40;;;;;;5069280;28;19924;-61
2022/09/29 06:20:59;;;;;;;;;;;17.50;87.50;;;;;;5061904;28;19974;-63
2022/09/29 06:23:24;;;;;;;;;;;17.80;87.50;;;;;;5053434;28;19925;-63
2022/09/29 06:25:54;;;;;;;;;;;17.60;87.40;;;;;;5058280;28;19921;-62
2022/09/29 06:28:19;;;;;;;;;;;17.60;87.30;;;;;;5053070;28;20447;-67
2022/09/29 06:30:46;;;;;;;;;;;17.60;87.30;;;;;;5051949;28;19952;-66
2022/09/29 06:33:11;;;;;;;;;;;17.60;87.30;;;;;;5070991;28;19991;-69
2022/09/29 06:38:21;;;;;;;;;;;17.70;87.30;;;;;;5065130;28;19977;-68
2022/09/29 06:40:47;;;;;;;;;;;17.60;87.20;;;;;;5061257;28;20007;-65
2022/09/29 06:43:12;;;;;;;;;;;17.90;87.40;;;;;;5091976;28;20015;-63
2022/09/29 06:45:39;;;;;;;;;;;17.80;87.30;;;;;;5069857;28;20015;-69
2022/09/29 06:48:05;;;;;;;;;;;18.10;87.30;;;;;;5060997;28;20016;-64
2022/09/29 06:50:31;;;;;;;;;;;18.00;87.30;;;;;;5074953;28;20377;-63
2022/09/29 06:52:57;;;;;;;;;;;;;;;;;;5065075;28;19932;-66
2022/09/29 06:55:22;;;;;;;;;;;17.90;87.00;;;;;;5056720;28;20008;-64
2022/09/29 06:57:48;;;;;;;;;;;17.90;87.10;;;;;;5075090;28;20389;-66
2022/09/29 07:00:13;;;;;;;;;;;18.10;87.20;;;;;;5075709;28;19932;-63
2022/09/29 07:02:40;;;;;;;;;;;18.20;87.20;;;;;;5077615;28;19929;-63
2022/09/29 07:05:10;;;;;;;;;;;18.10;87.00;;;;;;5074631;28;20267;-62
2022/09/29 07:07:36;;;;;;;;;;;18.30;86.90;;;;;;5065680;28;19928;-62
2022/09/29 07:10:02;;;;;;;;;;;18.50;87.00;;;;;;5074037;28;19924;-63
2022/09/29 07:12:27;;;;;;;;;;;18.60;87.00;;;;;;5076615;28;19980;-64
2022/09/29 07:14:53;;;;;;;;;;;18.50;86.80;;;;;;5077647;28;20300;-64
2022/09/29 07:17:19;;;;;;;;;;;18.90;86.70;;;;;;5070037;28;19925;-64
2022/09/29 07:19:44;;;;;;;;;;;18.80;86.50;;;;;;5062570;28;19947;-68
2022/09/29 07:22:10;;;;;;;;;;;18.90;86.40;;;;;;5059896;28;19925;-70
2022/09/29 07:24:35;;;;;;;;;;;19.20;86.20;;;;;;5073130;28;19920;-64
2022/09/29 07:27:01;;;;;;;;;;;19.00;85.80;;;;;;5074810;28;19928;-64
2022/09/29 07:29:31;;;;;;;;;;;18.90;85.70;;;;;;5072210;28;19981;-64
2022/09/29 07:31:57;;;;;;;;;;;;;;;;;;5069709;28;19989;-66
2022/09/29 07:34:23;;;;;;;;;;;19.60;85.80;;;;;;5074011;28;19925;-68
2022/09/29 07:36:49;;;;;;;;;;;19.50;85.60;;;;;;5075075;28;20046;-70
2022/09/29 07:39:14;;;;;;;;;;;19.50;85.50;;;;;;5075097;28;20374;-70
2022/09/29 07:41:40;;;;;;;;;;;19.40;85.30;;;;;;5072459;28;19924;-67
2022/09/29 07:44:06;;;;;;;;;;;;;;;;;;5075859;28;20438;-70
2022/09/29 07:46:32;;;;;;;;;;;19.80;85.30;;;;;;5076845;28;19925;-72
2022/09/29 07:48:57;;;;;;;;;;;19.60;85.10;;;;;;5074329;28;20378;-71
2022/09/29 07:51:23;;;;;;;;;;;19.80;85.00;;;;;;5072976;28;19924;-67
2022/09/29 07:53:48;;;;;;;;;;;19.90;84.90;;;;;;5073811;28;19924;-71
2022/09/29 07:56:16;;;;;;;;;;;20.00;84.80;;;;;;5073910;28;19931;-65
2022/09/29 07:58:42;;;;;;;;;;;19.90;83.90;;;;;;5073038;28;19931;-72
2022/09/29 08:01:09;;;;;;;;;;;19.90;83.50;;;;;;5075633;28;19999;-71
2022/09/29 08:03:38;;;;;;;;;;;20.10;83.90;;;;;;5076218;28;19925;-72
2022/09/29 08:06:04;;;;;;;;;;;20.10;83.80;;;;;;5073908;28;19932;-66
2022/09/29 08:08:29;;;;;;;;;;;19.90;83.60;;;;;;5070530;28;19978;-66
2022/09/29 08:11:05;;;;;;;;;;;20.10;83.80;;;;;;5075419;28;19925;-71
2022/09/29 08:13:31;;;;;;;;;;;20.00;83.80;;;;;;5075653;28;19931;-72
2022/09/29 08:16:00;;;;;;;;;;;20.00;83.70;;;;;;5074756;28;19989;-63
2022/09/29 08:18:26;;;;;;;;;;;20.00;83.60;;;;;;5073813;28;19978;-72
2022/09/29 08:20:52;;;;;;;;;;;20.10;83.70;;;;;;5075996;28;20339;-72
2022/09/29 08:23:19;;;;;;;;;;;20.10;83.80;;;;;;5075614;28;19924;-71
2022/09/29 08:25:45;;;;;;;;;;;20.20;83.50;;;;;;5075546;28;19970;-65
2022/09/29 08:28:10;;;;;;;;;;;20.20;83.30;;;;;;5072058;28;20334;-69
2022/09/29 08:30:37;;;;;;;;;;;20.30;83.30;;;;;;5071223;28;19939;-67
2022/09/29 08:33:03;;;;;;;;;;;20.50;83.40;;;;;;5060684;28;20298;-65
2022/09/29 08:35:28;;;;;;;;;;;20.10;83.10;;;;;;5074484;28;19931;-69
2022/09/29 08:37:57;;;;;;;;;;;20.40;83.00;;;;;;5073486;28;19925;-65
2022/09/29 08:40:26;;;;;;;;;;;20.20;82.90;;;;;;5072800;28;20263;-70
2022/09/29 08:43:10;;;;;;;;;;;20.60;83.20;;;;;;5075203;28;20010;-72
2022/09/29 08:45:38;;;;;;;;;;;20.20;82.80;;;;;;5075445;28;19964;-72
2022/09/29 08:48:12;;;;;;;;;;;20.60;83.10;;;;;;5057075;28;19969;-72
2022/09/29 08:50:42;;;;;;;;;;;20.10;82.70;;;;;;5057192;28;20382;-65
2022/09/29 08:53:09;;;;;;;;;;;20.40;82.90;;;;;;5082568;28;20286;-72
2022/09/29 08:55:34;;;;;;;;;;;20.60;82.90;;;;;;5072952;28;20378;-73
2022/09/29 08:58:00;;;;;;;;;;;20.50;82.70;;;;;;5072733;28;19979;-66
2022/09/29 09:00:32;;;;;;;;;;;20.60;82.80;;;;;;5073000;28;19928;-63
2022/09/29 09:03:02;;;;;;;;;;;20.30;82.70;;;;;;5072660;28;19970;-70
2022/09/29 09:05:43;;;;;;;;;;;20.30;83.10;;;;;;5073565;28;19924;-72
2022/09/29 09:08:33;;;;;;;;;;;20.40;82.80;;;;;;5071988;28;19928;-64
2022/09/29 09:11:01;;;;;;;;;;;20.30;82.70;;;;;;4996137;28;19973;-65
2022/09/29 09:13:40;;;;;;;;;;;20.40;82.80;;;;;;4998339;28;20517;-63
2022/09/29 09:16:14;;;;;;;;;;;20.40;82.90;;;;;;5012492;28;19925;-68
2022/09/29 09:18:43;;;;;;;;;;;20.20;81.90;;;;;;5012801;28;19961;-63
2022/09/29 09:21:09;;;;;;;;;;;20.50;82.20;;;;;;5012757;28;20013;-62
2022/09/29 09:23:41;;;;;;;;;;;20.30;83.40;;;;;;5012081;28;20283;-63
2022/09/29 09:26:06;;;;;;;;;;;20.30;82.10;;;;;;5012708;28;19972;-63
2022/09/29 09:28:36;;;;;;;;;;;20.20;83.00;;;;;;5012740;28;19929;-63
2022/09/29 09:31:04;;;;;;;;;;;20.60;83.70;;;;;;5012562;28;19956;-64
2022/09/29 09:33:31;;;;;;;;;;;20.30;83.10;;;;;;5012259;28;19925;-64
2022/09/29 09:36:06;;;;;;;;;;;20.60;83.80;;;;;;5000419;28;19929;-63
2022/09/29 09:38:50;;;;;;;;;;;20.50;83.30;;;;;;4995654;28;19980;-66
2022/09/29 09:41:16;;;;;;;;;;;20.40;83.30;;;;;;5011783;28;20278;-63
2022/09/29 09:43:43;;;;;;;;;;;20.50;83.90;;;;;;4996099;28;19960;-63
2022/09/29 09:46:12;;;;;;;;;;;20.40;83.40;;;;;;4995156;28;20016;-64
2022/09/29 09:48:40;;;;;;;;;;;20.30;83.40;;;;;;5058184;28;19924;-63
2022/09/29 09:51:41;;;;;;;;;;;20.40;83.90;;;;;;5074287;28;19986;-62
2022/09/29 09:54:11;;;;;;;;;;;20.40;82.70;;;;;;4999469;28;19948;-65
2022/09/29 09:56:55;;;;;;;;;;;20.30;83.60;;;;;;4984037;28;20040;-64
2022/09/29 09:59:24;;;;;;;;;;;20.30;83.70;;;;;;5010979;28;19937;-70
2022/09/29 10:01:50;;;;;;;;;;;20.60;83.90;;;;;;4995692;28;19968;-72
2022/09/29 10:04:16;;;;;;;;;;;20.20;83.70;;;;;;4995688;28;19971;-71
2022/09/29 10:06:41;;;;;;;;;;;20.10;83.80;;;;;;5011066;28;19925;-69
2022/09/29 10:09:13;;;;;;;;;;;20.20;83.70;;;;;;4996223;28;19925;-72
2022/09/29 10:11:39;;;;;;;;;;;21.10;83.30;;;;;;4975599;28;19980;-72
2022/09/29 10:14:10;;;;;;;;;;;20.30;83.90;;;;;;4992851;28;19926;-75
2022/09/29 10:16:45;;;;;;;;;;;20.00;83.80;;;;;;4976089;28;19926;-74
2022/09/29 10:19:11;;;;;;;;;;;20.40;84.10;;;;;;4976288;28;19988;-73
2022/09/29 10:21:38;;;;;;;;;;;20.00;84.30;;;;;;4992434;28;20469;-74
2022/09/29 10:24:06;;;;;;;;;;;20.20;84.60;;;;;;5005683;28;19932;-74
2022/09/29 10:26:42;;;;;;;;;;;20.30;84.20;;;;;;5011892;28;19929;-74
2022/09/29 10:29:18;;;;;;;;;;;20.10;84.10;;;;;;5069073;28;19925;-77
2022/09/29 10:31:44;;;;;;;;;;;20.30;84.20;;;;;;5071586;28;19950;-73
2022/09/29 10:34:09;;;;;;;;;;;20.00;84.30;;;;;;5072562;28;19924;-75
2022/09/29 10:36:56;;;;;;;;;;;20.10;84.20;;;;;;5073749;28;19924;-64
2022/09/29 10:39:32;;;;;;;;;;;20.30;84.10;;;;;;5072211;28;19924;-74
2022/09/29 10:41:57;;;;;;;;;;;20.40;84.30;;;;;;5055937;28;19925;-75
2022/09/29 10:44:23;;;;;;;;;;;20.00;84.10;;;;;;5072221;28;19971;-72
2022/09/29 10:46:50;;;;;;;;;;;20.50;84.60;;;;;;5073293;28;19985;-73
2022/09/29 10:49:17;;;;;;;;;;;20.30;84.20;;;;;;5072060;28;20019;-71
2022/09/29 10:52:03;;;;;;;;;;;20.30;84.40;;;;;;5053320;28;19925;-71
2022/09/29 10:54:33;;;;;;;;;;;20.40;84.90;;;;;;5065163;28;20023;-63
2022/09/29 10:56:59;;;;;;;;;;;20.20;83.50;;;;;;5072088;28;19979;-73
2022/09/29 10:59:25;;;;;;;;;;;20.40;84.50;;;;;;5072018;28;19982;-68
2022/09/29 11:01:51;;;;;;;;;;;20.40;84.10;;;;;;5071825;28;19970;-64
2022/09/29 11:04:25;;;;;;;;;;;20.50;84.10;;;;;;5072419;28;19920;-73
2022/09/29 11:06:51;;;;;;;;;;;20.50;83.80;;;;;;5073032;28;19925;-62
2022/09/29 11:09:20;;;;;;;;;;;20.50;83.70;;;;;;5073170;28;19935;-62
2022/09/29 11:11:45;;;;;;;;;;;20.60;83.60;;;;;;5072075;28;20382;-62
2022/09/29 11:14:28;;;;;;;;;;;20.60;83.60;;;;;;5073243;28;20003;-62
2022/09/29 11:16:58;;;;;;;;;;;20.80;83.70;;;;;;5073740;28;19931;-62
2022/09/29 11:19:23;;;;;;;;;;;20.80;82.80;;;;;;5073434;28;19932;-62
2022/09/29 11:21:56;;;;;;;;;;;20.50;83.50;;;;;;5072166;28;19924;-65
2022/09/29 11:24:28;;;;;;;;;;;20.80;82.70;;;;;;5074411;28;20006;-64
2022/09/29 11:26:58;;;;;;;;;;;20.80;82.60;;;;;;5075414;28;19924;-62
2022/09/29 11:29:27;;;;;;;;;;;20.70;82.30;;;;;;5076585;28;19925;-63
2022/09/29 11:31:57;;;;;;;;;;;20.60;83.10;;;;;;5074608;28;19929;-62
2022/09/29 11:34:22;;;;;;;;;;;20.70;83.70;;;;;;5075517;28;19924;-62
2022/09/29 11:36:51;;;;;;;;;;;20.60;83.10;;;;;;5076690;28;19932;-66
2022/09/29 11:39:24;;;;;;;;;;;20.70;82.10;;;;;;5076688;28;20333;-73
2022/09/29 11:41:53;;;;;;;;;;;20.70;82.90;;;;;;5071948;28;20015;-66
2022/09/29 11:44:25;;;;;;;;;;;20.80;82.90;;;;;;5074486;28;19993;-73
2022/09/29 11:47:09;;;;;;;;;;;20.90;82.00;;;;;;5075457;28;20401;-73
2022/09/29 11:49:36;;;;;;;;;;;20.70;81.80;;;;;;5076413;28;19925;-74
2022/09/29 11:52:30;;;;;;;;;;;21.00;82.70;;;;;;5072378;28;19924;-70
2022/09/29 11:55:08;;;;;;;;;;;20.90;82.40;;;;;;5006353;28;19952;-67
2022/09/29 11:57:38;;;;;;;;;;;20.70;81.10;;;;;;5006177;28;20069;-75
2022/09/29 12:00:07;;;;;;;;;;;20.90;81.90;;;;;;4994564;28;20438;-75
2022/09/29 12:02:45;;;;;;;;;;;20.80;81.60;;;;;;4997691;28;19926;-74
2022/09/29 12:05:15;;;;;;;;;;;20.90;81.70;;;;;;4984783;28;20458;-68
2022/09/29 12:07:45;;;;;;;;;;;20.70;82.10;;;;;;5010723;28;19936;-74
2022/09/29 12:10:17;;;;;;;;;;;20.60;81.30;;;;;;4986828;28;19922;-72
2022/09/29 12:12:45;;;;;;;;;;;20.60;81.40;;;;;;4999048;28;19932;-72
2022/09/29 12:15:14;;;;;;;;;;;20.70;80.70;;;;;;4997976;28;19996;-68
2022/09/29 12:17:42;;;;;;;;;;;20.40;80.50;;;;;;5004252;28;19929;-68
2022/09/29 12:20:13;;;;;;;;;;;20.40;81.30;;;;;;4994982;28;20009;-73
2022/09/29 12:22:39;;;;;;;;;;;20.60;81.50;;;;;;5011508;28;19973;-73
2022/09/29 12:25:09;;;;;;;;;;;20.70;82.10;;;;;;4980988;28;20308;-75
2022/09/29 12:27:35;;;;;;;;;;;20.30;81.40;;;;;;4997410;28;19933;-70
2022/09/29 12:30:03;;;;;;;;;;;20.40;81.30;;;;;;5011536;28;19926;-71
2022/09/29 12:32:38;;;;;;;;;;;20.40;81.60;;;;;;5056427;28;19974;-71
2022/09/29 12:35:24;;;;;;;;;;;20.50;81.00;;;;;;5033772;28;19925;-67
2022/09/29 12:37:50;;;;;;;;;;;20.50;81.30;;;;;;5025013;28;20023;-63
2022/09/29 12:40:21;;;;;;;;;;;20.00;82.10;;;;;;5018214;28;19979;-62
2022/09/29 12:42:58;;;;;;;;;;;20.30;82.10;;;;;;5042775;28;19941;-62
2022/09/29 12:45:25;;;;;;;;;;;20.40;82.20;;;;;;5042832;28;19924;-63
2022/09/29 12:48:11;;;;;;;;;;;20.10;81.90;;;;;;5036392;28;19921;-62
2022/09/29 12:50:55;;;;;;;;;;;20.20;81.00;;;;;;5053845;28;19931;-62
2022/09/29 12:53:26;;;;;;;;;;;20.20;82.00;;;;;;5051866;28;20401;-66
2022/09/29 12:55:57;;;;;;;;;;;20.00;82.10;;;;;;5020460;28;20318;-63
2022/09/29 12:58:32;;;;;;;;;;;19.90;82.30;;;;;;5022060;28;19924;-67
2022/09/29 13:00:58;;;;;;;;;;;;;;;;;;5035582;28;19924;-65
2022/09/29 13:03:28;;;;;;;;;;;19.90;82.60;;;;;;5035829;28;19925;-62
2022/09/29 13:05:54;;;;;;;;;;;;;;;;;;5051139;28;19925;-62
2022/09/29 13:08:23;;;;;;;;;;;20.10;83.00;;;;;;5054738;28;19925;-62
2022/09/29 13:10:48;;;;;;;;;;;20.00;83.00;;;;;;5054540;28;19925;-63
2022/09/29 13:13:32;;;;;;;;;;;20.10;83.10;;;;;;5061136;28;19924;-65
2022/09/29 13:15:58;;;;;;;;;;;20.00;82.80;;;;;;5067016;28;20301;-63
2022/09/29 13:18:24;;;;;;;;;;;19.70;82.60;;;;;;5064060;28;19928;-63
2022/09/29 13:20:50;;;;;;;;;;;19.90;82.60;;;;;;5072383;28;20336;-62
2022/09/29 13:23:23;;;;;;;;;;;19.70;82.60;;;;;;5074059;28;19982;-63
2022/09/29 13:26:12;;;;;;;;;;;20.00;81.90;;;;;;5074354;28;19924;-67
2022/09/29 13:28:38;;;;;;;;;;;19.80;81.90;;;;;;5072668;28;19924;-67
2022/09/29 13:31:06;;;;;;;;;;;20.00;83.90;;;;;;5072783;28;19931;-63
2022/09/29 13:33:31;;;;;;;;;;;19.90;83.50;;;;;;5074069;28;19932;-63
2022/09/29 13:35:57;;;;;;;;;;;19.90;83.60;;;;;;5073262;28;19924;-63
2022/09/29 13:38:24;;;;;;;;;;;19.80;83.80;;;;;;5050306;28;20283;-63
2022/09/29 13:41:08;;;;;;;;;;;19.90;84.00;;;;;;5072429;28;20048;-64
2022/09/29 13:43:39;;;;;;;;;;;19.80;84.10;;;;;;5074393;28;19948;-68
2022/09/29 13:46:23;;;;;;;;;;;19.80;84.10;;;;;;5073978;28;20302;-69
2022/09/29 13:48:54;;;;;;;;;;;19.70;84.30;;;;;;5071845;28;19977;-63
2022/09/29 13:51:23;;;;;;;;;;;19.60;84.30;;;;;;5072329;28;19979;-63
2022/09/29 13:54:09;;;;;;;;;;;19.90;84.50;;;;;;5072297;28;19925;-64
2022/09/29 13:56:34;;;;;;;;;;;19.70;84.40;;;;;;5060307;28;19925;-63
2022/09/29 13:59:00;;;;;;;;;;;19.70;84.40;;;;;;5069347;28;19928;-72
2022/09/29 14:01:35;;;;;;;;;;;19.90;84.50;;;;;;5072079;28;19935;-64
2022/09/29 14:04:19;;;;;;;;;;;19.90;84.50;;;;;;5073487;28;19931;-63
2022/09/29 14:06:45;;;;;;;;;;;19.70;84.50;;;;;;5072394;28;19978;-62
2022/09/29 14:09:19;;;;;;;;;;;19.80;85.70;;;;;;5071936;28;20058;-64
2022/09/29 14:11:48;;;;;;;;;;;19.90;84.70;;;;;;5073616;28;19983;-63
2022/09/29 14:14:24;;;;;;;;;;;19.80;84.60;;;;;;5055734;28;19932;-63
2022/09/29 14:17:13;;;;;;;;;;;19.60;83.60;;;;;;5072780;28;19924;-63
2022/09/29 14:19:50;;;;;;;;;;;19.60;84.50;;;;;;4993805;28;20024;-63
2022/09/29 14:22:30;;;;;;;;;;;19.60;84.70;;;;;;5006651;28;19936;-65
2022/09/29 14:25:09;;;;;;;;;;;19.90;84.90;;;;;;5012348;28;20336;-63
2022/09/29 14:27:35;;;;;;;;;;;19.80;85.00;;;;;;5012201;28;20363;-63
2022/09/29 14:30:00;;;;;;;;;;;19.90;85.10;;;;;;5010794;28;19976;-63
2022/09/29 14:32:45;;;;;;;;;;;19.60;85.10;;;;;;4994786;28;19983;-64
2022/09/29 14:35:29;;;;;;;;;;;19.60;85.10;;;;;;5002725;28;19933;-62
2022/09/29 14:38:13;;;;;;;;;;;19.80;85.40;;;;;;4996280;28;19972;-62